createdAt,value
2022-09-03T00:03:50.273Z,0
2022-09-03T00:14:38.255Z,0
2022-09-03T00:20:01.120Z,0
2022-09-03T00:25:26.812Z,0
2022-09-03T00:30:50.282Z,0
2022-09-03T00:36:13.062Z,0
2022-09-03T00:41:35.863Z,0
2022-09-03T00:46:58.646Z,0
2022-09-03T00:52:23.688Z,0
2022-09-03T00:57:48.182Z,0
2022-09-03T01:03:10.651Z,0
2022-09-03T01:08:33.229Z,0
2022-09-03T01:13:58.664Z,2
2022-09-03T01:19:21.000Z,0
2022-09-03T01:24:43.616Z,0
2022-09-03T01:30:05.847Z,0
2022-09-03T01:35:29.765Z,0
2022-09-03T01:51:37.469Z,0
2022-09-03T01:56:59.914Z,0
2022-09-03T02:02:22.890Z,0
2022-09-03T02:07:50.999Z,0
2022-09-03T02:13:14.234Z,0
2022-09-03T02:18:36.831Z,0
2022-09-03T02:24:06.548Z,0
2022-09-03T02:29:29.277Z,2
2022-09-03T02:34:51.631Z,0
2022-09-03T02:40:13.954Z,0
2022-09-03T02:45:36.313Z,0
2022-09-03T02:50:58.931Z,0
2022-09-03T02:56:21.545Z,0
2022-09-03T03:01:47.082Z,0
2022-09-03T03:07:09.443Z,0
2022-09-03T03:12:32.027Z,0
2022-09-03T03:17:54.652Z,0
2022-09-03T03:23:17.179Z,0
2022-09-03T03:34:05.139Z,0
2022-09-03T03:39:27.867Z,0
2022-09-03T03:44:51.178Z,0
2022-09-03T03:50:17.218Z,0
2022-09-03T03:55:39.853Z,0
2022-09-03T04:01:02.557Z,2
2022-09-03T04:06:25.200Z,0
2022-09-03T04:11:48.031Z,0
2022-09-03T04:17:10.438Z,0
2022-09-03T04:22:32.816Z,0
2022-09-03T04:27:56.732Z,0
2022-09-03T04:33:19.226Z,4.1
2022-09-03T04:38:41.732Z,9
2022-09-03T04:44:04.128Z,21
2022-09-03T04:49:26.438Z,27.7
2022-09-03T04:54:48.706Z,34.1
2022-09-03T05:00:11.368Z,39.1
2022-09-03T05:16:29.840Z,80.9
2022-09-03T05:21:52.401Z,100.7
2022-09-03T05:27:15.011Z,114.8
2022-09-03T05:32:37.529Z,135.9
2022-09-03T05:38:06.335Z,170.8
2022-09-03T05:48:54.071Z,362.9
2022-09-03T05:59:42.111Z,400
2022-09-03T06:05:04.854Z,343
2022-09-03T06:10:47.318Z,392.1
2022-09-03T06:16:10.520Z,402.1
2022-09-03T06:21:33.385Z,454.9
2022-09-03T06:26:55.983Z,488.9
2022-09-03T06:32:18.532Z,544.9
2022-09-03T06:37:41.200Z,567.2
2022-09-03T06:43:10.359Z,587.7
2022-09-03T06:48:32.918Z,564.9
2022-09-03T06:53:55.202Z,565.6
2022-09-03T07:10:07.306Z,758.7
2022-09-03T07:15:31.708Z,654.6
2022-09-03T07:20:54.125Z,610.6
2022-09-03T07:26:16.639Z,657.1
2022-09-03T07:31:39.688Z,1392.7
2022-09-03T07:37:02.948Z,747.3
2022-09-03T07:42:25.739Z,1428.4
2022-09-03T07:47:48.559Z,2045.3
2022-09-03T07:53:11.818Z,1518.7
2022-09-03T07:58:35.074Z,995.4
2022-09-03T08:04:02.373Z,2216.9
2022-09-03T08:09:25.925Z,2601.5
2022-09-03T08:14:48.611Z,1653.8
2022-09-03T08:20:10.158Z,886.2
2022-09-03T08:25:32.599Z,2318.8
2022-09-03T08:30:56.894Z,2589.2
2022-09-03T08:36:20.396Z,2521
2022-09-03T08:41:43.345Z,3057.9
2022-09-03T08:57:52.529Z,1884.8
2022-09-03T09:03:15.475Z,739.2
2022-09-03T09:08:44.376Z,856.5
2022-09-03T09:14:07.235Z,964.3
2022-09-03T09:19:29.972Z,1177.2
2022-09-03T09:24:55.527Z,1396.5
2022-09-03T09:30:19.222Z,1429.3
2022-09-03T09:35:42.665Z,1684.2
2022-09-03T09:41:06.181Z,1565.5
2022-09-03T09:46:29.149Z,1567.6
2022-09-03T09:51:51.657Z,1693.3
2022-09-03T09:57:15.006Z,2417.7
2022-09-03T10:02:43.208Z,1687.8
2022-09-03T10:08:05.928Z,1767.9
2022-09-03T10:13:30.826Z,1756.8
2022-09-03T10:18:53.762Z,2235.4
2022-09-03T10:24:19.435Z,2320.5
2022-09-03T10:29:41.776Z,1454.9
2022-09-03T10:35:12.059Z,1651.8
2022-09-03T10:46:01.011Z,2406.8
2022-09-03T10:51:24.330Z,2616.1
2022-09-03T10:56:47.100Z,2067
2022-09-03T11:02:10.506Z,4143.9
2022-09-03T11:07:33.076Z,4006.9
2022-09-03T11:12:56.646Z,3872.9
2022-09-03T11:18:19.526Z,4119.7
2022-09-03T11:23:43.261Z,4072.7
2022-09-03T11:29:06.103Z,3989.6
2022-09-03T11:34:33.254Z,3827.2
2022-09-03T11:39:57.157Z,3309.6
2022-09-03T11:45:20.845Z,4059.3
2022-09-03T11:50:43.920Z,4166.4
2022-09-03T11:56:07.878Z,3995.7
2022-09-03T12:01:31.056Z,3844.4
2022-09-03T12:06:53.523Z,3759.6
2022-09-03T12:12:16.260Z,3742.6
2022-09-03T12:17:38.870Z,3871.6
2022-09-03T12:23:03.717Z,3701.2
2022-09-03T12:28:26.045Z,3750
2022-09-03T12:39:13.827Z,3981.1
2022-09-03T12:44:36.667Z,3247.8
2022-09-03T12:55:02.612Z,3692.5
2022-09-03T13:00:25.349Z,3547.7
2022-09-03T13:05:47.623Z,3647.4
2022-09-03T13:11:10.213Z,3768.1
2022-09-03T13:16:33.329Z,3823.9
2022-09-03T13:21:56.094Z,3343
2022-09-03T13:27:17.207Z,3573.3
2022-09-03T13:38:07.195Z,3680.7
2022-09-03T13:43:29.211Z,879.5
2022-09-03T13:48:50.601Z,1025.2
2022-09-03T13:54:13.028Z,866.6
2022-09-03T13:59:36.157Z,1413.6
2022-09-03T14:15:52.434Z,2856.8
2022-09-03T14:21:13.322Z,575.8
2022-09-03T14:26:41.516Z,465.7
2022-09-03T14:32:03.641Z,519.6
2022-09-03T14:37:28.072Z,479
2022-09-03T14:42:50.461Z,409
2022-09-03T14:48:12.812Z,409.7
2022-09-03T14:53:35.276Z,365.2
2022-09-03T14:58:59.073Z,334.3
2022-09-03T15:04:21.662Z,311.3
2022-09-03T15:09:44.078Z,289.9
2022-09-03T15:15:07.409Z,267
2022-09-03T15:20:29.914Z,273.7
2022-09-03T15:25:51.740Z,266.7
2022-09-03T15:31:14.171Z,273.7
2022-09-03T15:36:54.743Z,300.2
2022-09-03T15:42:17.010Z,320.6
2022-09-03T15:47:52.616Z,388.5
2022-09-03T15:53:15.326Z,470
2022-09-03T16:04:01.258Z,659.5
2022-09-03T16:09:23.902Z,659.2
2022-09-03T16:14:48.809Z,609.8
2022-09-03T16:20:11.714Z,605.1
2022-09-03T16:25:34.656Z,666.4
2022-09-03T16:30:57.297Z,654.9
2022-09-03T16:36:22.302Z,540.8
2022-09-03T16:41:45.888Z,427.6
2022-09-03T16:47:11.342Z,361.7
2022-09-03T16:52:39.699Z,278.8
2022-09-03T16:58:05.064Z,193.4
2022-09-03T17:03:31.545Z,161.9
2022-09-03T17:08:54.249Z,117.1
2022-09-03T17:14:17.413Z,99.7
2022-09-03T17:19:39.741Z,83.9
2022-09-03T17:25:02.337Z,74.8
2022-09-03T17:41:12.079Z,54.8
2022-09-03T17:46:35.017Z,52.1
2022-09-03T17:51:59.818Z,51.7
2022-09-03T17:57:22.378Z,39.9
2022-09-03T18:02:44.611Z,35.2
2022-09-03T18:08:07.143Z,25.1
2022-09-03T18:13:29.660Z,19.1
2022-09-03T18:19:13.183Z,12
2022-09-03T18:24:35.798Z,5
2022-09-03T18:30:00.832Z,0
2022-09-03T18:35:23.534Z,0
2022-09-03T18:40:48.360Z,0
2022-09-03T18:48:07.016Z,0
2022-09-03T18:53:33.045Z,0
2022-09-03T18:59:04.610Z,0
2022-09-03T19:04:27.120Z,0
2022-09-03T19:09:49.950Z,0
2022-09-03T19:15:12.379Z,0
2022-09-03T19:20:34.813Z,0
2022-09-03T19:25:57.265Z,0
2022-09-03T19:31:19.907Z,0
2022-09-03T19:36:42.144Z,0
2022-09-03T19:42:07.600Z,0
2022-09-03T19:47:30.097Z,0
2022-09-03T19:52:52.756Z,0
2022-09-03T19:58:49.530Z,0
2022-09-03T20:04:12.294Z,0
2022-09-03T20:09:34.820Z,0
2022-09-03T20:14:57.202Z,0
2022-09-03T20:20:25.597Z,0
2022-09-03T20:25:51.526Z,0
2022-09-03T20:31:14.111Z,0
2022-09-03T20:36:36.956Z,0
2022-09-03T20:41:59.706Z,0
2022-09-03T20:47:28.358Z,0
2022-09-03T20:52:53.679Z,0
2022-09-03T20:58:16.335Z,0
2022-09-03T21:03:41.645Z,0
2022-09-03T21:09:04.347Z,0
2022-09-03T21:19:52.125Z,0
2022-09-03T21:25:36.094Z,0
2022-09-03T21:31:01.606Z,0
2022-09-03T21:36:24.398Z,0
2022-09-03T21:41:46.622Z,0
2022-09-03T21:47:09.208Z,0
2022-09-03T22:03:18.054Z,0
2022-09-03T22:08:42.854Z,0
2022-09-03T22:14:05.490Z,0
2022-09-03T22:19:27.818Z,0
2022-09-03T22:24:50.378Z,0
2022-09-03T22:30:20.770Z,0
2022-09-03T22:35:43.277Z,0
2022-09-03T22:41:10.176Z,0
2022-09-03T22:46:32.770Z,0
2022-09-03T22:51:55.175Z,0
2022-09-03T22:57:17.762Z,0
2022-09-03T23:02:39.953Z,0
2022-09-03T23:08:02.640Z,0
2022-09-03T23:13:28.677Z,0
2022-09-03T23:18:51.265Z,0
2022-09-03T23:24:18.162Z,0
2022-09-03T23:29:40.355Z,0
2022-09-03T23:35:02.854Z,0
2022-09-03T23:45:48.754Z,0
2022-09-03T23:51:11.488Z,0
2022-09-03T23:56:33.994Z,0
